Time,TemperatureF,DewpointF,PressureIn,WindDirection,WindDirectionDegrees,WindSpeedMPH,WindSpeedGustMPH,Humidity,HourlyPrecipIn,Conditions,Clouds,dailyrainin,SoftwareType,DateUTC
2013-01-08 00:03:00,27.7,22.9,30.02,SSW,203,0.0,2.2,82,0.00,,,0.00,WUHU216HW,2013-01-08 06:03:00,
2013-01-08 00:08:00,27.9,23.7,30.02,West,270,0.0,1.3,84,0.00,,,0.00,WUHU216HW,2013-01-08 06:08:00,
2013-01-08 00:13:00,28.4,24.0,30.02,WSW,248,0.0,1.3,83,0.00,,,0.00,WUHU216HW,2013-01-08 06:13:00,
2013-01-08 00:18:00,28.6,24.1,30.02,SW,225,0.0,1.6,83,0.00,,,0.00,WUHU216HW,2013-01-08 06:18:00,
2013-01-08 00:23:00,28.6,24.1,30.02,SSE,158,0.0,1.6,83,0.00,,,0.00,WUHU216HW,2013-01-08 06:23:00,
2013-01-08 00:28:00,28.4,23.6,30.02,SSW,203,0.4,1.8,82,0.00,,,0.00,WUHU216HW,2013-01-08 06:28:00,
2013-01-08 00:33:00,28.4,24.0,30.02,South,180,1.6,1.8,83,0.00,,,0.00,WUHU216HW,2013-01-08 06:33:00,
2013-01-08 00:38:00,28.3,23.4,30.02,WSW,248,0.0,1.6,82,0.00,,,0.00,WUHU216HW,2013-01-08 06:38:00,
2013-01-08 00:43:00,28.1,23.6,30.02,SSE,158,0.9,1.6,83,0.00,,,0.00,WUHU216HW,2013-01-08 06:43:00,
2013-01-08 00:48:00,27.9,23.0,30.02,SSW,203,0.0,1.6,82,0.00,,,0.00,WUHU216HW,2013-01-08 06:48:00,
2013-01-08 00:53:00,27.5,22.7,30.02,South,180,0.0,1.1,82,0.00,,,0.00,WUHU216HW,2013-01-08 06:53:00,
2013-01-08 00:58:00,27.0,22.1,30.02,South,180,0.0,0.0,82,0.00,,,0.00,WUHU216HW,2013-01-08 06:58:00,
2013-01-08 01:03:00,26.8,22.3,30.02,SW,225,0.0,0.2,83,0.00,,,0.00,WUHU216HW,2013-01-08 07:03:00,
2013-01-08 01:08:00,27.0,22.8,30.02,SSW,203,0.4,0.7,84,0.00,,,0.00,WUHU216HW,2013-01-08 07:08:00,
2013-01-08 01:13:00,27.0,22.5,30.02,South,180,0.0,1.8,83,0.00,,,0.00,WUHU216HW,2013-01-08 07:13:00,
2013-01-08 01:18:00,27.0,22.8,30.02,SSW,203,0.0,1.8,84,0.00,,,0.00,WUHU216HW,2013-01-08 07:18:00,
2013-01-08 01:23:00,27.0,22.8,30.02,South,180,0.2,1.1,84,0.00,,,0.00,WUHU216HW,2013-01-08 07:23:00,
2013-01-08 01:28:00,27.0,22.5,30.02,SSW,203,0.0,0.2,83,0.00,,,0.00,WUHU216HW,2013-01-08 07:28:00,
2013-01-08 01:33:00,26.8,22.6,30.02,SSW,203,0.0,0.2,84,0.00,,,0.00,WUHU216HW,2013-01-08 07:33:00,
2013-01-08 01:38:00,26.5,22.0,30.02,SSW,203,0.0,0.0,83,0.00,,,0.00,WUHU216HW,2013-01-08 07:38:00,
2013-01-08 01:43:00,26.3,21.8,30.02,SSW,203,0.0,0.0,83,0.00,,,0.00,WUHU216HW,2013-01-08 07:43:00,
2013-01-08 01:48:00,25.9,21.2,30.02,SSE,158,0.0,0.0,82,0.00,,,0.00,WUHU216HW,2013-01-08 07:48:00,
2013-01-08 01:53:00,25.6,21.1,30.02,SSE,158,0.0,0.0,83,0.00,,,0.00,WUHU216HW,2013-01-08 07:53:00,
2013-01-08 01:58:00,25.4,21.0,30.03,SSE,158,0.0,0.0,83,0.00,,,0.00,WUHU216HW,2013-01-08 07:58:00,
2013-01-08 02:03:00,25.0,20.6,30.02,SSE,158,0.0,0.0,83,0.00,,,0.00,WUHU216HW,2013-01-08 08:03:00,
2013-01-08 02:08:00,24.7,20.3,30.03,SSE,158,0.0,0.0,83,0.00,,,0.00,WUHU216HW,2013-01-08 08:08:00,
2013-01-08 02:13:00,24.3,19.9,30.02,SSE,158,0.4,0.4,83,0.00,,,0.00,WUHU216HW,2013-01-08 08:13:00,
2013-01-08 02:18:00,24.1,19.7,30.02,SSE,158,0.0,0.7,83,0.00,,,0.00,WUHU216HW,2013-01-08 08:18:00,
2013-01-08 02:23:00,23.8,19.4,30.02,SSE,158,0.0,0.7,83,0.00,,,0.00,WUHU216HW,2013-01-08 08:23:00,
2013-01-08 02:28:00,23.2,18.8,30.02,SSE,158,0.0,0.0,83,0.00,,,0.00,WUHU216HW,2013-01-08 08:28:00,
2013-01-08 02:33:00,22.9,18.7,30.02,NNE,23,0.0,0.0,84,0.00,,,0.00,WUHU216HW,2013-01-08 08:33:00,
2013-01-08 02:38:00,22.3,18.2,30.02,North,0,0.0,0.0,84,0.00,,,0.00,WUHU216HW,2013-01-08 08:38:00,
2013-01-08 02:43:00,21.8,17.6,30.02,North,0,0.0,0.0,84,0.00,,,0.00,WUHU216HW,2013-01-08 08:43:00,
2013-01-08 02:48:00,21.2,17.4,30.02,North,0,0.0,0.0,85,0.00,,,0.00,WUHU216HW,2013-01-08 08:48:00,
2013-01-08 02:53:00,20.9,17.0,30.03,North,0,0.0,0.0,85,0.00,,,0.00,WUHU216HW,2013-01-08 08:53:00,
2013-01-08 02:58:00,21.2,17.6,30.02,North,0,0.0,0.0,86,0.00,,,0.00,WUHU216HW,2013-01-08 08:58:00,
2013-01-08 03:03:00,21.1,17.5,30.02,North,0,0.0,0.0,86,0.00,,,0.00,WUHU216HW,2013-01-08 09:03:00,
2013-01-08 03:08:00,20.7,16.8,30.02,North,0,0.0,0.0,85,0.00,,,0.00,WUHU216HW,2013-01-08 09:08:00,
2013-01-08 03:13:00,20.5,16.7,30.02,North,0,0.0,0.0,85,0.00,,,0.00,WUHU216HW,2013-01-08 09:13:00,
2013-01-08 03:18:00,20.2,16.3,30.02,North,0,0.0,0.0,85,0.00,,,0.00,WUHU216HW,2013-01-08 09:18:00,
2013-01-08 03:23:00,19.8,15.9,30.02,North,0,0.0,0.0,85,0.00,,,0.00,WUHU216HW,2013-01-08 09:23:00,
2013-01-08 03:28:00,20.0,16.4,30.02,North,0,0.0,0.0,86,0.00,,,0.00,WUHU216HW,2013-01-08 09:28:00,
2013-01-08 03:33:00,20.3,16.7,30.02,NNE,23,1.3,1.3,86,0.00,,,0.00,WUHU216HW,2013-01-08 09:33:00,
2013-01-08 03:38:00,19.4,15.6,30.02,North,0,0.0,1.8,85,0.00,,,0.00,WUHU216HW,2013-01-08 09:38:00,
2013-01-08 03:43:00,19.1,15.2,30.02,NNE,23,0.0,1.8,85,0.00,,,0.00,WUHU216HW,2013-01-08 09:43:00,
2013-01-08 03:48:00,19.1,15.5,30.02,NNE,23,0.0,0.0,86,0.00,,,0.00,WUHU216HW,2013-01-08 09:48:00,
2013-01-08 03:53:00,19.1,15.5,30.02,NNE,23,0.0,0.0,86,0.00,,,0.00,WUHU216HW,2013-01-08 09:53:00,
2013-01-08 03:58:00,19.1,15.8,30.02,South,180,0.0,0.4,87,0.00,,,0.00,WUHU216HW,2013-01-08 09:58:00,
2013-01-08 04:03:00,19.8,16.5,30.02,SSE,158,0.0,0.4,87,0.00,,,0.00,WUHU216HW,2013-01-08 10:03:00,
2013-01-08 04:08:00,19.8,16.5,30.02,NNW,338,0.0,0.0,87,0.00,,,0.00,WUHU216HW,2013-01-08 10:08:00,
2013-01-08 04:13:00,19.4,16.1,30.02,SW,225,0.0,0.0,87,0.00,,,0.00,WUHU216HW,2013-01-08 10:13:00,
2013-01-08 04:18:00,20.0,16.9,30.02,SSW,203,0.0,0.0,88,0.00,,,0.00,WUHU216HW,2013-01-08 10:18:00,
2013-01-08 04:23:00,20.2,16.8,30.02,SSW,203,0.0,0.0,87,0.00,,,0.00,WUHU216HW,2013-01-08 10:23:00,
2013-01-08 04:28:00,20.3,17.0,30.02,SSW,203,0.0,0.0,87,0.00,,,0.00,WUHU216HW,2013-01-08 10:28:00,
2013-01-08 04:33:00,21.1,18.0,30.02,South,180,0.0,0.0,88,0.00,,,0.00,WUHU216HW,2013-01-08 10:33:00,
2013-01-08 04:38:00,21.6,18.5,30.02,West,270,0.0,0.0,88,0.00,,,0.00,WUHU216HW,2013-01-08 10:38:00,
2013-01-08 04:43:00,21.1,17.7,30.02,NNW,338,0.0,0.0,87,0.00,,,0.00,WUHU216HW,2013-01-08 10:43:00,
2013-01-08 04:48:00,20.5,17.2,30.02,NNW,338,0.0,0.0,87,0.00,,,0.00,WUHU216HW,2013-01-08 10:48:00,
2013-01-08 04:53:00,19.8,16.5,30.02,NNW,338,0.0,0.0,87,0.00,,,0.00,WUHU216HW,2013-01-08 10:53:00,
2013-01-08 04:58:00,19.3,15.9,30.02,NNW,338,0.0,0.0,87,0.00,,,0.00,WUHU216HW,2013-01-08 10:58:00,
2013-01-08 05:03:00,18.9,15.6,30.02,NNW,338,0.0,0.0,87,0.00,,,0.00,WUHU216HW,2013-01-08 11:03:00,
2013-01-08 05:08:00,18.5,15.5,30.02,NNW,338,0.0,0.0,88,0.00,,,0.00,WUHU216HW,2013-01-08 11:08:00,
2013-01-08 05:13:00,18.2,14.9,30.03,NNW,338,0.0,0.0,87,0.00,,,0.00,WUHU216HW,2013-01-08 11:13:00,
2013-01-08 05:18:00,17.6,14.6,30.02,NNW,338,0.0,0.0,88,0.00,,,0.00,WUHU216HW,2013-01-08 11:18:00,
2013-01-08 05:23:00,17.5,14.1,30.03,NNW,338,0.0,0.0,87,0.00,,,0.00,WUHU216HW,2013-01-08 11:23:00,
2013-01-08 05:28:00,17.8,14.8,30.03,North,0,0.0,0.0,88,0.00,,,0.00,WUHU216HW,2013-01-08 11:28:00,
2013-01-08 05:33:00,17.8,14.8,30.03,North,0,0.0,0.0,88,0.00,,,0.00,WUHU216HW,2013-01-08 11:33:00,
2013-01-08 05:38:00,17.6,14.6,30.03,North,0,0.0,0.0,88,0.00,,,0.00,WUHU216HW,2013-01-08 11:38:00,
2013-01-08 05:43:00,17.8,14.8,30.03,North,0,0.0,0.0,88,0.00,,,0.00,WUHU216HW,2013-01-08 11:43:00,
2013-01-08 05:48:00,17.6,14.6,30.03,North,0,0.0,0.0,88,0.00,,,0.00,WUHU216HW,2013-01-08 11:48:00,
2013-01-08 05:53:00,17.6,14.9,30.03,North,0,0.0,0.0,89,0.00,,,0.00,WUHU216HW,2013-01-08 11:53:00,
2013-01-08 05:58:00,17.8,14.8,30.03,North,0,0.0,0.0,88,0.00,,,0.00,WUHU216HW,2013-01-08 11:58:00,
2013-01-08 06:03:00,17.1,14.0,30.03,North,0,0.0,0.0,88,0.00,,,0.00,WUHU216HW,2013-01-08 12:03:00,
2013-01-08 06:08:00,16.6,13.5,30.03,North,0,0.0,0.0,88,0.00,,,0.00,WUHU216HW,2013-01-08 12:08:00,
2013-01-08 06:13:00,16.2,13.1,30.03,North,0,0.0,0.0,88,0.00,,,0.00,WUHU216HW,2013-01-08 12:13:00,
2013-01-08 06:18:00,15.7,12.7,30.03,North,0,0.0,0.0,88,0.00,,,0.00,WUHU216HW,2013-01-08 12:18:00,
2013-01-08 06:23:00,15.1,12.2,30.03,North,0,0.0,0.0,88,0.00,,,0.00,WUHU216HW,2013-01-08 12:23:00,
2013-01-08 06:28:00,14.8,11.8,30.03,North,0,0.0,0.0,88,0.00,,,0.00,WUHU216HW,2013-01-08 12:28:00,
2013-01-08 06:33:00,14.8,11.8,30.03,North,0,0.0,0.0,88,0.00,,,0.00,WUHU216HW,2013-01-08 12:33:00,
2013-01-08 06:38:00,14.6,11.7,30.04,North,0,0.0,0.0,88,0.00,,,0.00,WUHU216HW,2013-01-08 12:38:00,
2013-01-08 06:43:00,14.6,11.9,30.04,North,0,0.0,0.0,89,0.00,,,0.00,WUHU216HW,2013-01-08 12:43:00,
2013-01-08 06:48:00,14.8,12.1,30.04,North,0,0.0,0.0,89,0.00,,,0.00,WUHU216HW,2013-01-08 12:48:00,
2013-01-08 06:53:00,14.8,12.1,30.04,North,0,0.0,0.0,89,0.00,,,0.00,WUHU216HW,2013-01-08 12:53:00,
2013-01-08 06:58:00,14.8,12.1,30.04,North,0,0.0,0.0,89,0.00,,,0.00,WUHU216HW,2013-01-08 12:58:00,
2013-01-08 07:03:00,14.8,12.1,30.04,North,0,0.0,0.0,89,0.00,,,0.00,WUHU216HW,2013-01-08 13:03:00,
2013-01-08 07:08:00,14.8,12.1,30.05,North,0,0.0,0.0,89,0.00,,,0.00,WUHU216HW,2013-01-08 13:08:00,
2013-01-08 07:13:00,14.8,12.1,30.05,North,0,0.0,0.0,89,0.00,,,0.00,WUHU216HW,2013-01-08 13:13:00,
2013-01-08 07:18:00,15.5,12.8,30.05,North,0,0.0,0.0,89,0.00,,,0.00,WUHU216HW,2013-01-08 13:18:00,
2013-01-08 07:23:00,15.7,12.9,30.05,North,0,0.0,0.0,89,0.00,,,0.00,WUHU216HW,2013-01-08 13:23:00,
2013-01-08 07:28:00,15.5,12.8,30.05,North,0,0.0,0.0,89,0.00,,,0.00,WUHU216HW,2013-01-08 13:28:00,
2013-01-08 07:33:00,15.3,12.6,30.05,North,0,0.0,0.0,89,0.00,,,0.00,WUHU216HW,2013-01-08 13:33:00,
2013-01-08 07:38:00,15.5,12.8,30.05,North,0,0.0,0.0,89,0.00,,,0.00,WUHU216HW,2013-01-08 13:38:00,
2013-01-08 07:43:00,16.0,13.5,30.05,North,0,0.0,0.0,90,0.00,,,0.00,WUHU216HW,2013-01-08 13:43:00,
2013-01-08 07:48:00,16.2,13.4,30.05,North,0,0.0,0.0,89,0.00,,,0.00,WUHU216HW,2013-01-08 13:48:00,
2013-01-08 07:53:00,16.2,13.4,30.05,SSW,203,0.0,0.0,89,0.00,,,0.00,WUHU216HW,2013-01-08 13:53:00,
2013-01-08 07:58:00,16.0,13.2,30.05,SSW,203,0.0,0.0,89,0.00,,,0.00,WUHU216HW,2013-01-08 13:58:00,
2013-01-08 08:03:00,16.2,13.4,30.05,South,180,0.0,0.0,89,0.00,,,0.00,WUHU216HW,2013-01-08 14:03:00,
2013-01-08 08:08:00,17.6,15.1,30.05,South,180,1.3,3.6,90,0.00,,,0.00,WUHU216HW,2013-01-08 14:08:00,
2013-01-08 08:13:00,19.6,17.1,30.05,SSE,158,0.4,3.6,90,0.00,,,0.00,WUHU216HW,2013-01-08 14:13:00,
2013-01-08 08:18:00,20.9,18.9,30.05,SW,225,0.2,3.6,92,0.00,,,0.00,WUHU216HW,2013-01-08 14:18:00,
2013-01-08 08:23:00,21.6,19.6,30.05,South,180,2.0,2.0,92,0.00,,,0.00,WUHU216HW,2013-01-08 14:23:00,
2013-01-08 08:28:00,22.0,20.0,30.05,SSE,158,0.9,2.9,92,0.00,,,0.00,WUHU216HW,2013-01-08 14:28:00,
2013-01-08 08:33:00,22.0,20.0,30.05,South,180,2.0,2.9,92,0.00,,,0.00,WUHU216HW,2013-01-08 14:33:00,
2013-01-08 08:38:00,22.0,19.7,30.05,SE,135,1.3,2.0,91,0.00,,,0.00,WUHU216HW,2013-01-08 14:38:00,
2013-01-08 08:43:00,22.0,19.7,30.05,SSW,203,1.1,2.2,91,0.00,,,0.00,WUHU216HW,2013-01-08 14:43:00,
2013-01-08 08:48:00,22.3,20.1,30.05,South,180,0.4,2.2,91,0.00,,,0.00,WUHU216HW,2013-01-08 14:48:00,
2013-01-08 08:53:00,22.9,20.6,30.05,South,180,0.4,2.5,91,0.00,,,0.00,WUHU216HW,2013-01-08 14:53:00,
2013-01-08 08:58:00,23.2,21.0,30.05,SSE,158,1.1,3.4,91,0.00,,,0.00,WUHU216HW,2013-01-08 14:58:00,
2013-01-08 09:03:00,23.6,21.3,30.06,SSE,158,1.3,3.4,91,0.00,,,0.00,WUHU216HW,2013-01-08 15:03:00,
2013-01-08 09:08:00,23.9,21.7,30.05,SSE,158,0.9,2.5,91,0.00,,,0.00,WUHU216HW,2013-01-08 15:08:00,
2013-01-08 09:13:00,24.1,21.9,30.06,South,180,0.7,2.7,91,0.00,,,0.00,WUHU216HW,2013-01-08 15:13:00,
2013-01-08 09:18:00,24.8,22.6,30.06,SE,135,1.3,2.7,91,0.00,,,0.00,WUHU216HW,2013-01-08 15:18:00,
2013-01-08 09:23:00,25.4,23.1,30.06,SSW,203,0.0,2.5,91,0.00,,,0.00,WUHU216HW,2013-01-08 15:23:00,
2013-01-08 09:28:00,25.7,23.5,30.05,South,180,2.0,2.7,91,0.00,,,0.00,WUHU216HW,2013-01-08 15:28:00,
2013-01-08 09:33:00,26.3,24.0,30.05,South,180,4.9,4.9,91,0.00,,,0.00,WUHU216HW,2013-01-08 15:33:00,
2013-01-08 09:38:00,26.8,24.6,30.05,SSE,158,3.4,4.9,91,0.00,,,0.00,WUHU216HW,2013-01-08 15:38:00,
2013-01-08 09:43:00,27.4,25.1,30.05,SSW,203,0.9,4.7,91,0.00,,,0.00,WUHU216HW,2013-01-08 15:43:00,
2013-01-08 09:48:00,27.9,25.7,30.05,South,180,0.4,5.4,91,0.00,,,0.00,WUHU216HW,2013-01-08 15:48:00,
2013-01-08 09:53:00,28.4,26.2,30.05,SSW,203,1.8,5.4,91,0.00,,,0.00,WUHU216HW,2013-01-08 15:53:00,
2013-01-08 09:58:00,29.0,26.2,30.05,South,180,1.8,3.1,89,0.00,,,0.00,WUHU216HW,2013-01-08 15:58:00,
2013-01-08 10:03:00,29.2,26.4,30.05,SE,135,2.7,3.1,89,0.00,,,0.00,WUHU216HW,2013-01-08 16:03:00,
2013-01-08 10:08:00,29.9,26.8,30.05,South,180,1.3,3.1,88,0.00,,,0.00,WUHU216HW,2013-01-08 16:08:00,
2013-01-08 10:13:00,30.6,27.8,30.05,SSW,203,0.0,3.1,89,0.00,,,0.00,WUHU216HW,2013-01-08 16:13:00,
2013-01-08 10:18:00,31.0,27.0,30.05,SSE,158,0.7,2.9,85,0.00,,,0.00,WUHU216HW,2013-01-08 16:18:00,
2013-01-08 10:23:00,31.7,28.0,30.04,South,180,1.3,3.6,86,0.00,,,0.00,WUHU216HW,2013-01-08 16:23:00,
2013-01-08 10:28:00,32.2,28.0,30.05,South,180,2.5,3.6,84,0.00,,,0.00,WUHU216HW,2013-01-08 16:28:00,
2013-01-08 10:33:00,33.1,28.4,30.04,South,180,2.0,4.5,83,0.00,,,0.00,WUHU216HW,2013-01-08 16:33:00,
2013-01-08 10:38:00,33.5,28.3,30.04,SSW,203,2.0,4.5,81,0.00,,,0.00,WUHU216HW,2013-01-08 16:38:00,
2013-01-08 10:43:00,34.4,28.4,30.04,South,180,2.0,4.0,79,0.00,,,0.00,WUHU216HW,2013-01-08 16:43:00,
2013-01-08 10:48:00,34.6,28.4,30.04,SW,225,2.5,3.4,78,0.00,,,0.00,WUHU216HW,2013-01-08 16:48:00,
2013-01-08 10:53:00,34.9,27.7,30.04,South,180,0.0,4.3,75,0.00,,,0.00,WUHU216HW,2013-01-08 16:53:00,
2013-01-08 10:58:00,35.5,28.9,30.04,SSW,203,2.2,4.3,77,0.00,,,0.00,WUHU216HW,2013-01-08 16:58:00,
2013-01-08 11:03:00,36.2,29.0,30.04,SSE,158,3.6,4.0,75,0.00,,,0.00,WUHU216HW,2013-01-08 17:03:00,
2013-01-08 11:08:00,36.4,28.8,30.03,SW,225,2.5,4.0,74,0.00,,,0.00,WUHU216HW,2013-01-08 17:08:00,
2013-01-08 11:13:00,36.7,29.9,30.03,South,180,2.5,3.8,76,0.00,,,0.00,WUHU216HW,2013-01-08 17:13:00,
2013-01-08 11:18:00,36.5,28.1,30.03,SW,225,1.6,3.8,71,0.00,,,0.00,WUHU216HW,2013-01-08 17:18:00,
2013-01-08 11:23:00,35.8,27.6,30.03,South,180,4.9,4.9,72,0.00,,,0.00,WUHU216HW,2013-01-08 17:23:00,
2013-01-08 11:28:00,35.5,27.6,30.03,SW,225,1.1,5.4,73,0.01,,,0.01,WUHU216HW,2013-01-08 17:28:00,
2013-01-08 11:33:00,35.6,27.8,30.02,SSW,203,5.4,7.6,73,0.01,,,0.01,WUHU216HW,2013-01-08 17:33:00,
2013-01-08 11:38:00,36.0,27.8,30.02,WSW,248,3.4,7.6,72,0.01,,,0.01,WUHU216HW,2013-01-08 17:38:00,
2013-01-08 11:43:00,36.0,27.6,30.02,SW,225,3.6,6.3,71,0.01,,,0.01,WUHU216HW,2013-01-08 17:43:00,
2013-01-08 11:48:00,36.2,27.7,30.02,SSE,158,4.0,6.3,71,0.01,,,0.01,WUHU216HW,2013-01-08 17:48:00,
2013-01-08 11:53:00,36.5,28.1,30.02,SW,225,4.7,6.3,71,0.01,,,0.01,WUHU216HW,2013-01-08 17:53:00,
2013-01-08 11:58:00,36.5,28.1,30.02,SSW,203,1.8,6.3,71,0.01,,,0.01,WUHU216HW,2013-01-08 17:58:00,
2013-01-08 12:03:00,36.9,28.1,30.01,SSE,158,2.5,5.6,70,0.01,,,0.01,WUHU216HW,2013-01-08 18:03:00,
2013-01-08 12:08:00,38.2,28.9,30.01,South,180,1.6,4.5,69,0.01,,,0.01,WUHU216HW,2013-01-08 18:08:00,
2013-01-08 12:13:00,39.1,30.1,30.01,South,180,2.0,5.1,70,0.01,,,0.01,WUHU216HW,2013-01-08 18:13:00,
2013-01-08 12:18:00,40.1,30.0,30.01,NW,315,0.9,5.1,67,0.01,,,0.01,WUHU216HW,2013-01-08 18:18:00,
2013-01-08 12:23:00,40.1,30.0,30.01,SSE,158,4.7,4.7,67,0.01,,,0.01,WUHU216HW,2013-01-08 18:23:00,
2013-01-08 12:28:00,40.1,29.6,30.00,SSE,158,4.0,5.4,66,0.01,,,0.02,WUHU216HW,2013-01-08 18:28:00,
2013-01-08 12:33:00,41.2,31.1,30.00,SSE,158,2.2,5.4,67,0.01,,,0.02,WUHU216HW,2013-01-08 18:33:00,
2013-01-08 12:38:00,41.8,30.9,30.00,SE,135,3.4,4.9,65,0.01,,,0.02,WUHU216HW,2013-01-08 18:38:00,
2013-01-08 12:43:00,41.8,30.1,30.00,South,180,2.5,7.6,63,0.01,,,0.02,WUHU216HW,2013-01-08 18:43:00,
2013-01-08 12:48:00,42.1,30.4,30.00,SSW,203,3.4,7.6,63,0.01,,,0.02,WUHU216HW,2013-01-08 18:48:00,
2013-01-08 12:53:00,42.8,31.1,29.99,South,180,5.4,6.7,63,0.02,,,0.03,WUHU216HW,2013-01-08 18:53:00,
2013-01-08 12:58:00,42.8,29.9,29.99,South,180,4.7,7.2,60,0.02,,,0.03,WUHU216HW,2013-01-08 18:58:00,
2013-01-08 13:03:00,42.5,30.3,29.99,South,180,1.3,7.2,62,0.02,,,0.03,WUHU216HW,2013-01-08 19:03:00,
2013-01-08 13:08:00,42.5,29.5,29.99,South,180,1.3,6.7,60,0.02,,,0.03,WUHU216HW,2013-01-08 19:08:00,
2013-01-08 13:13:00,42.3,30.6,29.99,South,180,2.0,6.7,63,0.02,,,0.03,WUHU216HW,2013-01-08 19:13:00,
2013-01-08 13:18:00,42.3,30.2,29.99,South,180,2.9,4.5,62,0.02,,,0.03,WUHU216HW,2013-01-08 19:18:00,
2013-01-08 13:23:00,41.6,29.9,29.99,SSE,158,6.0,6.9,63,0.02,,,0.03,WUHU216HW,2013-01-08 19:23:00,
2013-01-08 13:28:00,40.0,28.4,30.00,SSE,158,5.4,6.9,63,0.01,,,0.03,WUHU216HW,2013-01-08 19:28:00,
2013-01-08 13:33:00,39.6,28.7,29.99,SSW,203,2.9,6.0,65,0.02,,,0.04,WUHU216HW,2013-01-08 19:33:00,
2013-01-08 13:38:00,41.2,30.3,29.99,South,180,3.1,5.4,65,0.02,,,0.04,WUHU216HW,2013-01-08 19:38:00,
2013-01-08 13:43:00,41.6,30.2,29.99,South,180,2.0,5.1,64,0.02,,,0.04,WUHU216HW,2013-01-08 19:43:00,
2013-01-08 13:48:00,41.8,30.4,29.99,SSW,203,2.0,5.8,64,0.01,,,0.04,WUHU216HW,2013-01-08 19:48:00,
2013-01-08 13:53:00,41.8,30.1,29.99,SSW,203,0.9,5.8,63,0.01,,,0.04,WUHU216HW,2013-01-08 19:53:00,
2013-01-08 13:58:00,43.6,32.1,29.99,South,180,4.3,4.7,64,0.01,,,0.04,WUHU216HW,2013-01-08 19:58:00,
2013-01-08 14:03:00,44.3,32.0,29.99,South,180,4.7,4.7,62,0.01,,,0.04,WUHU216HW,2013-01-08 20:03:00,
2013-01-08 14:08:00,44.1,32.0,29.98,SSE,158,1.1,4.7,62,0.01,,,0.04,WUHU216HW,2013-01-08 20:08:00,
2013-01-08 14:13:00,43.2,30.6,29.98,SSE,158,2.5,4.7,61,0.01,,,0.04,WUHU216HW,2013-01-08 20:13:00,
2013-01-08 14:18:00,42.1,30.4,29.98,SSW,203,3.1,4.7,63,0.02,,,0.05,WUHU216HW,2013-01-08 20:18:00,
2013-01-08 14:23:00,42.3,31.0,29.98,SSE,158,3.6,5.6,64,0.02,,,0.05,WUHU216HW,2013-01-08 20:23:00,
2013-01-08 14:28:00,42.5,30.7,29.97,SSE,158,4.0,5.6,63,0.01,,,0.05,WUHU216HW,2013-01-08 20:28:00,
2013-01-08 14:33:00,42.3,31.0,29.97,South,180,2.2,4.9,64,0.01,,,0.05,WUHU216HW,2013-01-08 20:33:00,
2013-01-08 14:38:00,41.8,30.4,29.98,SSE,158,4.0,5.1,64,0.01,,,0.05,WUHU216HW,2013-01-08 20:38:00,
2013-01-08 14:43:00,41.0,30.2,29.98,South,180,3.8,6.3,65,0.01,,,0.05,WUHU216HW,2013-01-08 20:43:00,
2013-01-08 14:48:00,40.7,30.2,29.98,South,180,5.1,6.5,66,0.01,,,0.05,WUHU216HW,2013-01-08 20:48:00,
2013-01-08 14:53:00,40.3,30.2,29.98,South,180,2.9,6.5,67,0.01,,,0.05,WUHU216HW,2013-01-08 20:53:00,
2013-01-08 14:58:00,39.8,29.3,29.98,SW,225,2.2,6.7,66,0.01,,,0.05,WUHU216HW,2013-01-08 20:58:00,
2013-01-08 15:03:00,39.2,29.1,29.98,SSE,158,4.0,6.7,67,0.01,,,0.05,WUHU216HW,2013-01-08 21:03:00,
2013-01-08 15:08:00,39.1,29.4,29.98,SSW,203,1.8,6.7,68,0.01,,,0.05,WUHU216HW,2013-01-08 21:08:00,
2013-01-08 15:13:00,38.9,29.5,29.98,SSW,203,4.7,6.7,69,0.01,,,0.05,WUHU216HW,2013-01-08 21:13:00,
2013-01-08 15:18:00,38.5,29.6,29.99,SW,225,1.3,6.3,70,0.00,,,0.05,WUHU216HW,2013-01-08 21:18:00,
2013-01-08 15:23:00,38.3,29.8,29.98,SSW,203,5.4,5.8,71,0.01,,,0.06,WUHU216HW,2013-01-08 21:23:00,
2013-01-08 15:28:00,38.2,29.6,29.98,South,180,2.2,6.0,71,0.01,,,0.06,WUHU216HW,2013-01-08 21:28:00,
2013-01-08 15:33:00,38.2,29.6,29.98,SSE,158,0.2,6.0,71,0.01,,,0.06,WUHU216HW,2013-01-08 21:33:00,
2013-01-08 15:38:00,38.0,29.8,29.98,SSE,158,1.3,5.4,72,0.01,,,0.06,WUHU216HW,2013-01-08 21:38:00,
2013-01-08 15:43:00,37.8,29.6,29.97,SSW,203,4.0,4.7,72,0.01,,,0.06,WUHU216HW,2013-01-08 21:43:00,
2013-01-08 15:48:00,37.8,30.0,29.96,ESE,113,2.0,5.6,73,0.01,,,0.06,WUHU216HW,2013-01-08 21:48:00,
2013-01-08 15:53:00,37.6,29.8,29.96,SSE,158,1.8,5.6,73,0.01,,,0.06,WUHU216HW,2013-01-08 21:53:00,
2013-01-08 15:58:00,37.4,29.9,29.96,SSE,158,6.0,6.0,74,0.01,,,0.06,WUHU216HW,2013-01-08 21:58:00,
2013-01-08 16:03:00,37.1,29.5,29.96,SSE,158,3.4,6.0,74,0.01,,,0.06,WUHU216HW,2013-01-08 22:03:00,
2013-01-08 16:08:00,37.1,29.9,29.95,SSE,158,5.4,6.7,75,0.01,,,0.06,WUHU216HW,2013-01-08 22:08:00,
2013-01-08 16:13:00,37.1,29.9,29.95,SSE,158,5.1,6.9,75,0.01,,,0.06,WUHU216HW,2013-01-08 22:13:00,
2013-01-08 16:18:00,36.9,29.7,29.95,SSE,158,3.8,6.9,75,0.01,,,0.06,WUHU216HW,2013-01-08 22:18:00,
2013-01-08 16:23:00,36.7,29.9,29.95,South,180,4.5,4.7,76,0.00,,,0.06,WUHU216HW,2013-01-08 22:23:00,
2013-01-08 16:28:00,36.5,30.0,29.95,SSE,158,3.1,5.4,77,0.00,,,0.06,WUHU216HW,2013-01-08 22:28:00,
2013-01-08 16:33:00,36.4,29.5,29.95,SSW,203,4.7,5.4,76,0.00,,,0.06,WUHU216HW,2013-01-08 22:33:00,
2013-01-08 16:38:00,36.4,29.5,29.95,SSE,158,3.8,6.3,76,0.00,,,0.06,WUHU216HW,2013-01-08 22:38:00,
2013-01-08 16:43:00,36.0,29.2,29.95,South,180,3.8,6.3,76,0.00,,,0.06,WUHU216HW,2013-01-08 22:43:00,
2013-01-08 16:48:00,35.8,29.3,29.95,SSE,158,2.7,6.0,77,0.00,,,0.06,WUHU216HW,2013-01-08 22:48:00,
2013-01-08 16:53:00,35.6,29.1,29.94,SSE,158,6.7,6.7,77,0.00,,,0.06,WUHU216HW,2013-01-08 22:53:00,
2013-01-08 16:58:00,35.5,29.3,29.94,South,180,2.9,6.7,78,0.00,,,0.06,WUHU216HW,2013-01-08 22:58:00,
2013-01-08 17:03:00,35.3,29.1,29.94,South,180,3.1,6.7,78,0.00,,,0.06,WUHU216HW,2013-01-08 23:03:00,
2013-01-08 17:08:00,35.1,28.9,29.94,SSE,158,2.2,7.4,78,0.00,,,0.06,WUHU216HW,2013-01-08 23:08:00,
2013-01-08 17:13:00,35.1,28.9,29.94,SSE,158,1.8,7.4,78,0.00,,,0.06,WUHU216HW,2013-01-08 23:13:00,
2013-01-08 17:18:00,35.1,28.9,29.94,South,180,3.1,6.3,78,0.00,,,0.06,WUHU216HW,2013-01-08 23:18:00,
2013-01-08 17:23:00,35.1,29.2,29.94,SSE,158,3.6,5.8,79,0.00,,,0.06,WUHU216HW,2013-01-08 23:23:00,
2013-01-08 17:28:00,35.1,29.2,29.94,South,180,2.5,6.0,79,0.00,,,0.06,WUHU216HW,2013-01-08 23:28:00,
2013-01-08 17:33:00,35.1,29.2,29.94,SSE,158,3.8,6.0,79,0.00,,,0.06,WUHU216HW,2013-01-08 23:33:00,
2013-01-08 17:38:00,35.1,29.5,29.94,South,180,5.4,6.0,80,0.00,,,0.06,WUHU216HW,2013-01-08 23:38:00,
2013-01-08 17:43:00,35.1,29.5,29.94,South,180,2.0,6.9,80,0.00,,,0.06,WUHU216HW,2013-01-08 23:43:00,
2013-01-08 17:48:00,34.9,29.3,29.94,South,180,5.4,7.6,80,0.00,,,0.06,WUHU216HW,2013-01-08 23:48:00,
2013-01-08 17:53:00,34.9,29.3,29.93,SSW,203,3.6,7.6,80,0.00,,,0.06,WUHU216HW,2013-01-08 23:53:00,
2013-01-08 17:58:00,34.9,29.3,29.93,South,180,3.6,6.3,80,0.00,,,0.06,WUHU216HW,2013-01-08 23:58:00,
2013-01-08 18:03:00,34.7,29.2,29.94,SSW,203,3.6,6.0,80,0.00,,,0.06,WUHU216HW,2013-01-09 00:03:00,
2013-01-08 18:08:00,34.6,29.0,29.93,SSW,203,4.7,6.9,80,0.00,,,0.06,WUHU216HW,2013-01-09 00:08:00,
2013-01-08 18:13:00,34.6,29.0,29.93,South,180,1.8,6.9,80,0.00,,,0.06,WUHU216HW,2013-01-09 00:13:00,
2013-01-08 18:18:00,34.4,28.8,29.93,SSW,203,2.9,5.1,80,0.00,,,0.06,WUHU216HW,2013-01-09 00:18:00,
2013-01-08 18:23:00,34.4,29.1,29.93,SSW,203,5.4,5.8,81,0.00,,,0.06,WUHU216HW,2013-01-09 00:23:00,
2013-01-08 18:28:00,34.2,28.9,29.92,SW,225,1.3,5.8,81,0.00,,,0.06,WUHU216HW,2013-01-09 00:28:00,
2013-01-08 18:33:00,34.4,29.1,29.92,SSE,158,4.3,6.5,81,0.00,,,0.06,WUHU216HW,2013-01-09 00:33:00,
2013-01-08 18:38:00,34.6,29.3,29.92,South,180,3.6,6.5,81,0.00,,,0.06,WUHU216HW,2013-01-09 00:38:00,
2013-01-08 18:43:00,34.6,29.3,29.92,SSW,203,5.6,6.3,81,0.00,,,0.06,WUHU216HW,2013-01-09 00:43:00,
2013-01-08 18:48:00,34.7,29.4,29.92,SSE,158,4.7,6.9,81,0.00,,,0.06,WUHU216HW,2013-01-09 00:48:00,
2013-01-08 18:53:00,34.7,29.2,29.92,SSW,203,4.9,6.9,80,0.00,,,0.06,WUHU216HW,2013-01-09 00:53:00,
2013-01-08 18:58:00,35.1,29.5,29.92,South,180,6.7,7.8,80,0.00,,,0.06,WUHU216HW,2013-01-09 00:58:00,
2013-01-08 19:03:00,35.3,29.7,29.92,SSW,203,6.3,7.8,80,0.00,,,0.06,WUHU216HW,2013-01-09 01:03:00,
2013-01-08 19:08:00,35.3,29.7,29.92,South,180,3.1,6.9,80,0.00,,,0.06,WUHU216HW,2013-01-09 01:08:00,
2013-01-08 19:13:00,35.6,29.7,29.92,SSE,158,8.5,8.5,79,0.00,,,0.06,WUHU216HW,2013-01-09 01:13:00,
2013-01-08 19:18:00,35.8,29.9,29.92,WSW,248,6.0,11.0,79,0.00,,,0.06,WUHU216HW,2013-01-09 01:18:00,
2013-01-08 19:23:00,35.8,29.6,29.92,South,180,7.4,11.0,78,0.00,,,0.06,WUHU216HW,2013-01-09 01:23:00,
2013-01-08 19:28:00,36.0,29.8,29.92,SSW,203,4.9,8.9,78,0.00,,,0.06,WUHU216HW,2013-01-09 01:28:00,
2013-01-08 19:33:00,36.0,29.8,29.92,SSW,203,2.2,8.5,78,0.00,,,0.06,WUHU216HW,2013-01-09 01:33:00,
2013-01-08 19:38:00,36.0,29.4,29.93,SSE,158,5.4,8.5,77,0.00,,,0.06,WUHU216HW,2013-01-09 01:38:00,
2013-01-08 19:43:00,36.0,29.4,29.93,South,180,2.0,7.6,77,0.00,,,0.06,WUHU216HW,2013-01-09 01:43:00,
2013-01-08 19:48:00,36.0,29.4,29.94,WSW,248,3.1,6.3,77,0.00,,,0.06,WUHU216HW,2013-01-09 01:48:00,
2013-01-08 19:53:00,36.0,29.4,29.94,SW,225,2.5,5.1,77,0.00,,,0.06,WUHU216HW,2013-01-09 01:53:00,
2013-01-08 19:58:00,35.6,29.1,29.94,South,180,4.0,6.9,77,0.00,,,0.06,WUHU216HW,2013-01-09 01:58:00,
2013-01-08 20:03:00,35.6,29.1,29.94,SSE,158,2.7,6.9,77,0.00,,,0.06,WUHU216HW,2013-01-09 02:03:00,
2013-01-08 20:08:00,36.0,29.4,29.94,South,180,2.2,7.4,77,0.00,,,0.06,WUHU216HW,2013-01-09 02:08:00,
2013-01-08 20:13:00,36.4,29.5,29.94,South,180,2.5,7.4,76,0.00,,,0.06,WUHU216HW,2013-01-09 02:13:00,
2013-01-08 20:18:00,36.4,29.5,29.94,South,180,3.6,6.3,76,0.00,,,0.06,WUHU216HW,2013-01-09 02:18:00,
2013-01-08 20:23:00,36.5,29.7,29.93,South,180,4.9,6.3,76,0.00,,,0.06,WUHU216HW,2013-01-09 02:23:00,
2013-01-08 20:28:00,36.7,29.9,29.93,SSW,203,3.1,7.4,76,0.00,,,0.06,WUHU216HW,2013-01-09 02:28:00,
2013-01-08 20:33:00,36.5,29.7,29.94,SSW,203,4.9,7.4,76,0.00,,,0.06,WUHU216HW,2013-01-09 02:33:00,
2013-01-08 20:38:00,36.4,29.5,29.93,SSW,203,5.4,6.3,76,0.00,,,0.06,WUHU216HW,2013-01-09 02:38:00,
2013-01-08 20:43:00,36.4,29.8,29.93,South,180,2.5,7.2,77,0.00,,,0.06,WUHU216HW,2013-01-09 02:43:00,
2013-01-08 20:48:00,36.4,29.8,29.93,SW,225,3.4,7.2,77,0.00,,,0.06,WUHU216HW,2013-01-09 02:48:00,
2013-01-08 20:53:00,36.2,29.6,29.93,WSW,248,4.9,5.4,77,0.00,,,0.06,WUHU216HW,2013-01-09 02:53:00,
2013-01-08 20:58:00,36.2,29.6,29.93,SSW,203,4.3,4.9,77,0.00,,,0.06,WUHU216HW,2013-01-09 02:58:00,
2013-01-08 21:03:00,36.2,29.6,29.93,SSW,203,2.2,6.3,77,0.00,,,0.06,WUHU216HW,2013-01-09 03:03:00,
2013-01-08 21:08:00,36.2,29.6,29.92,SSW,203,3.6,6.3,77,0.00,,,0.06,WUHU216HW,2013-01-09 03:08:00,
2013-01-08 21:13:00,36.4,29.8,29.92,WSW,248,4.0,8.3,77,0.00,,,0.06,WUHU216HW,2013-01-09 03:13:00,
2013-01-08 21:18:00,36.5,30.0,29.93,West,270,2.5,8.3,77,0.00,,,0.06,WUHU216HW,2013-01-09 03:18:00,
2013-01-08 21:23:00,36.9,30.1,29.93,SSW,203,4.5,7.2,76,0.00,,,0.06,WUHU216HW,2013-01-09 03:23:00,
2013-01-08 21:28:00,37.1,30.3,29.93,WSW,248,5.4,7.2,76,0.00,,,0.06,WUHU216HW,2013-01-09 03:28:00,
2013-01-08 21:33:00,37.3,30.4,29.93,SW,225,6.9,7.2,76,0.00,,,0.06,WUHU216HW,2013-01-09 03:33:00,
2013-01-08 21:38:00,37.4,30.6,29.93,South,180,5.4,7.6,76,0.00,,,0.06,WUHU216HW,2013-01-09 03:38:00,
2013-01-08 21:43:00,37.4,30.6,29.93,SW,225,4.3,7.6,76,0.00,,,0.06,WUHU216HW,2013-01-09 03:43:00,
2013-01-08 21:48:00,37.4,30.6,29.93,South,180,1.8,7.4,76,0.00,,,0.06,WUHU216HW,2013-01-09 03:48:00,
2013-01-08 21:53:00,37.4,30.6,29.93,SSW,203,3.4,8.3,76,0.00,,,0.06,WUHU216HW,2013-01-09 03:53:00,
2013-01-08 21:58:00,37.4,30.6,29.92,SSW,203,4.5,8.3,76,0.00,,,0.06,WUHU216HW,2013-01-09 03:58:00,
2013-01-08 22:03:00,37.4,30.9,29.92,SSW,203,3.8,7.2,77,0.00,,,0.06,WUHU216HW,2013-01-09 04:03:00,
2013-01-08 22:08:00,37.3,30.7,29.91,South,180,6.3,9.2,77,0.00,,,0.06,WUHU216HW,2013-01-09 04:08:00,
2013-01-08 22:13:00,37.4,30.6,29.92,WSW,248,5.8,9.2,76,0.00,,,0.06,WUHU216HW,2013-01-09 04:13:00,
2013-01-08 22:18:00,37.6,30.8,29.91,SSW,203,2.0,6.9,76,0.00,,,0.06,WUHU216HW,2013-01-09 04:18:00,
2013-01-08 22:23:00,37.4,30.6,29.91,South,180,3.4,8.3,76,0.00,,,0.06,WUHU216HW,2013-01-09 04:23:00,
2013-01-08 22:28:00,37.4,30.6,29.91,West,270,6.9,8.3,76,0.00,,,0.06,WUHU216HW,2013-01-09 04:28:00,
2013-01-08 22:33:00,37.6,31.1,29.91,West,270,6.3,7.8,77,0.00,,,0.06,WUHU216HW,2013-01-09 04:33:00,
2013-01-08 22:38:00,37.8,30.9,29.91,West,270,4.0,7.8,76,0.00,,,0.06,WUHU216HW,2013-01-09 04:38:00,
2013-01-08 22:43:00,37.6,30.8,29.91,SW,225,2.5,8.1,76,0.00,,,0.06,WUHU216HW,2013-01-09 04:43:00,
2013-01-08 22:48:00,37.6,31.1,29.91,SSW,203,6.0,8.3,77,0.00,,,0.06,WUHU216HW,2013-01-09 04:48:00,
2013-01-08 22:53:00,37.6,31.1,29.91,South,180,4.3,9.8,77,0.00,,,0.06,WUHU216HW,2013-01-09 04:53:00,
2013-01-08 22:58:00,37.4,30.6,29.91,SSE,158,4.7,9.8,76,0.00,,,0.06,WUHU216HW,2013-01-09 04:58:00,
2013-01-08 23:00:00,37.6,30.8,29.91,SSW,203,5.1,6.9,76,0.00,,,0.06,WUHU216HW,2013-01-09 05:00:00,
2013-01-08 23:02:00,37.4,30.6,29.91,SSW,203,2.5,6.9,76,0.00,,,0.06,WUHU216HW,2013-01-09 05:02:00,
2013-01-08 23:03:00,37.4,30.9,29.91,SW,225,5.6,6.9,77,0.00,,,0.06,WUHU216HW,2013-01-09 05:03:00,
2013-01-08 23:08:00,37.6,31.1,29.91,WSW,248,4.5,7.6,77,0.00,,,0.06,WUHU216HW,2013-01-09 05:08:00,
2013-01-08 23:13:00,37.6,30.8,29.91,SSW,203,5.1,7.6,76,0.00,,,0.06,WUHU216HW,2013-01-09 05:13:00,
2013-01-08 23:18:00,37.4,30.6,29.91,WSW,248,5.6,7.8,76,0.00,,,0.06,WUHU216HW,2013-01-09 05:18:00,
2013-01-08 23:23:00,37.3,30.4,29.90,SW,225,6.7,7.8,76,0.00,,,0.06,WUHU216HW,2013-01-09 05:23:00,
2013-01-08 23:28:00,37.3,30.4,29.90,SE,135,6.0,8.9,76,0.00,,,0.06,WUHU216HW,2013-01-09 05:28:00,
2013-01-08 23:33:00,37.1,30.3,29.90,SSW,203,5.4,8.9,76,0.00,,,0.06,WUHU216HW,2013-01-09 05:33:00,
2013-01-08 23:38:00,37.1,30.5,29.90,SW,225,5.8,7.4,77,0.00,,,0.06,WUHU216HW,2013-01-09 05:38:00,
2013-01-08 23:43:00,37.1,30.5,29.90,WSW,248,4.9,6.3,77,0.00,,,0.06,WUHU216HW,2013-01-09 05:43:00,
2013-01-08 23:48:00,37.1,30.5,29.90,SSW,203,3.1,6.3,77,0.00,,,0.06,WUHU216HW,2013-01-09 05:48:00,
2013-01-08 23:53:00,36.7,30.5,29.90,NW,315,3.1,6.3,78,0.00,,,0.06,WUHU216HW,2013-01-09 05:53:00,
2013-01-08 23:58:00,36.7,30.5,29.90,SSE,158,6.0,6.3,78,0.00,,,0.06,WUHU216HW,2013-01-09 05:58:00,